KGLS

Scholes International at Galveston Airport

Galveston, Texas, USA
METAR KGLS 192252Z 19016KT 10SM CLR 32/26 A2990 RMK AO2 SLP123 T03170256
Observed Flight Rules
Aug-19 @ 22:52 UTC (17 minutes ago) Visual Flight Rules
Wind Visibility Clouds
190° at 16 knots 10 miles
  • Clear skies
Temperatures Readings
Current 32°C / 90°F
Dewpoint 26°C / 79°F
Humidity 71%
Altimeter 29.9" Hg
Pressure 1012.3 hPa
Elevation 6
METAR KGLS 192252Z 19016KT 10SM CLR 32/26 A2990 RMK AO2 SLP123 T03170256
Observed Flight Rules
Aug-19 @ 22:52 UTC
(17 minutes ago)
VFR
Wind Visibility
190° at 16 knots 10 miles
Clouds
  • Clear skies
Temperature Dewpoint
32°C / 90°F 26°C / 79°F
Humidity Altimeter Pressure
71% 29.9" Hg 1012.3 hPa